Aérodrome :
LOGIN :

S'inscrire | Disclaimer

   EN    FR    IT 

 










Légende :    VFR   VFR Marginal   IFR   IFR Intensif   IFR Très Intensif
Visi : 
Plafond : 
>= 8 km
>= 3000ft
5 à 8 km
1000 à 3000 ft
1500m à 5 km
500 à 1000 ft
800 à 1500m
200 à 500 ft
< 800m
< 200 ft
Symboles :   Orages  Brouillard  Fortes neiges  Fortes précipitations  Vent > 20 kt
SIGMETs :   Divers  Orages  Givrage  Turbulence  Onde Orograph.  Cendres Volcan.







- Altitude de l'aérodrome : 160 ft
- Code IATA : LRT
- Voir les cartes d'approche


LFRH - Lorient Lann Bihoue

DERNIER METAR :
  • 231530Z AUTO 23015G25KT 3100 BR OVC002 12/12 Q1022 BECMG 2000 RA

METARs EXPIRÉS :
  • 231500Z AUTO 23015KT 1900 1400 R25/P2000 R07/P2000 -RA BR OVC002 12/12 Q1022 BECMG 23015G25KT RA
  • 231430Z AUTO 23015KT 3500 DZ BR OVC003 12/12 Q1022 BECMG 23015G25KT 2000 RA
  • 231400Z AUTO 23016KT 4200 BR OVC002 12/12 Q1022 BECMG 23015G25KT 2000 RA
  • 231330Z AUTO 23015KT 2400 BR OVC002 12/12 Q1022 TEMPO 23015G25KT 4000 RA OVC005
  • 231300Z AUTO 23014KT 3500 -RADZ BR OVC002 12/12 Q1022 TEMPO 23015G25KT RA OVC005

TAF AMD TAF LFRH
Valide du 23 à 13h jusqu'au 24 à 12h UTC


231337Z 2313/2412 23015KT 9999 OVC008
BECMG 2313/2315 23015G25KT 2000 RA OVC002
TEMPO 2318/2406 0500 FG VV///
BECMG 2400/2402 21012G22KT
BECMG 2407/2409 20020G35KT 4000 RA OVC008
Pas de NOTAMs connus pour ce terrain.



MET'MAP, la Météo Aéronautique d'un coup d'oeil ! - Copyright ORBIFLY Décembre 2007 - Disclaimer

ORBIFLY MET'MAP TEAM :

Programmation & Développement : Alexandra Zaïnal
Conception & Développement : Baudouin d'Aumeries
Co-Programmation & Développement : Marc-Olivier Méhu
Soutien technique & logistique : Manuel Goepfert

Contact : metmap@orbifly.com




SOURCES & CREDITS :

   NOAA